Terminal Aerodrome Forecast
Issued by NWS Pueblo, CO

Home | Current Version | Previous Version | Text Only | Print | Product List | Glossary On
Versions: 1 2 3 4 5 6 7 8 9 10 11 12 13 14 15 16 17 18 19 20 21 22 23 24 25 26 27 28 29 30 31 32 33 34 35 36 37 38 39 40 41 42 43 44
000
FTUS45 KPUB 040212 AAB
TAFCOS
TAF AMD
KCOS 040212Z 0402/0424 12008KT P6SM VCTS SCT070CB BKN200
      TEMPO 0402/0404 VRB15G35KT 5SM -TSRA BKN050CB
     FM040500 06006KT P6SM SCT100 BKN200
     FM041400 15007KT P6SM SCT100 SCT200
     FM041700 16009KT P6SM FEW070 SCT200
     FM041900 17011KT P6SM VCTS SCT070CB BKN200=

USA.gov is the U.S. government's official web portal to all federal, state and local government web resources and services.